sensor_id;sensor_type;location;lat;lon;timestamp;temperature;humidity
34095;DHT22;20372;47.080;15.410;2023-02-15T00:01:11;1.30;99.90
34095;DHT22;20372;47.080;15.410;2023-02-15T00:03:37;1.30;99.90
34095;DHT22;20372;47.080;15.410;2023-02-15T00:06:03;1.30;99.90
34095;DHT22;20372;47.080;15.410;2023-02-15T00:08:28;1.30;99.90
34095;DHT22;20372;47.080;15.410;2023-02-15T00:11:03;1.30;99.90
34095;DHT22;20372;47.080;15.410;2023-02-15T00:13:28;1.30;99.90
34095;DHT22;20372;47.080;15.410;2023-02-15T00:15:54;1.40;99.90
34095;DHT22;20372;47.080;15.410;2023-02-15T00:18:19;1.40;99.90
34095;DHT22;20372;47.080;15.410;2023-02-15T00:20:45;1.40;99.90
34095;DHT22;20372;47.080;15.410;2023-02-15T00:23:10;1.40;99.90
34095;DHT22;20372;47.080;15.410;2023-02-15T00:25:36;1.50;99.90
34095;DHT22;20372;47.080;15.410;2023-02-15T00:28:01;1.50;99.90
34095;DHT22;20372;47.080;15.410;2023-02-15T00:30:27;1.50;99.90
34095;DHT22;20372;47.080;15.410;2023-02-15T00:32:52;1.50;99.90
34095;DHT22;20372;47.080;15.410;2023-02-15T00:35:18;1.50;99.90
34095;DHT22;20372;47.080;15.410;2023-02-15T00:37:43;1.60;99.90
34095;DHT22;20372;47.080;15.410;2023-02-15T00:40:09;1.60;99.90
34095;DHT22;20372;47.080;15.410;2023-02-15T00:42:35;1.60;99.90
34095;DHT22;20372;47.080;15.410;2023-02-15T00:45:00;1.80;99.90
34095;DHT22;20372;47.080;15.410;2023-02-15T00:47:26;1.90;99.90
34095;DHT22;20372;47.080;15.410;2023-02-15T00:49:51;2.10;99.90
34095;DHT22;20372;47.080;15.410;2023-02-15T00:52:17;2.20;99.90
34095;DHT22;20372;47.080;15.410;2023-02-15T00:54:42;2.20;99.90
34095;DHT22;20372;47.080;15.410;2023-02-15T00:57:08;2.20;99.90
34095;DHT22;20372;47.080;15.410;2023-02-15T00:59:34;2.20;99.90
34095;DHT22;20372;47.080;15.410;2023-02-15T01:01:59;2.10;99.90
34095;DHT22;20372;47.080;15.410;2023-02-15T01:04:25;2.10;99.90
34095;DHT22;20372;47.080;15.410;2023-02-15T01:06:50;2.20;99.90
34095;DHT22;20372;47.080;15.410;2023-02-15T01:09:16;2.20;99.90
34095;DHT22;20372;47.080;15.410;2023-02-15T01:11:41;2.10;99.90
34095;DHT22;20372;47.080;15.410;2023-02-15T01:14:07;2.10;99.90
34095;DHT22;20372;47.080;15.410;2023-02-15T01:16:33;2.10;99.90
34095;DHT22;20372;47.080;15.410;2023-02-15T01:18:58;2.10;99.90
34095;DHT22;20372;47.080;15.410;2023-02-15T01:21:24;2.20;99.90
34095;DHT22;20372;47.080;15.410;2023-02-15T01:23:50;2.20;99.90
34095;DHT22;20372;47.080;15.410;2023-02-15T01:26:16;2.10;99.90
34095;DHT22;20372;47.080;15.410;2023-02-15T01:28:42;2.10;99.90
34095;DHT22;20372;47.080;15.410;2023-02-15T01:31:08;2.20;99.90
34095;DHT22;20372;47.080;15.410;2023-02-15T01:33:35;2.20;99.90
34095;DHT22;20372;47.080;15.410;2023-02-15T01:36:01;2.00;99.90
34095;DHT22;20372;47.080;15.410;2023-02-15T01:38:26;1.90;99.90
34095;DHT22;20372;47.080;15.410;2023-02-15T01:40:52;1.80;99.90
34095;DHT22;20372;47.080;15.410;2023-02-15T01:43:18;1.80;99.90
34095;DHT22;20372;47.080;15.410;2023-02-15T01:45:45;1.90;99.90
34095;DHT22;20372;47.080;15.410;2023-02-15T01:48:22;2.00;99.90
34095;DHT22;20372;47.080;15.410;2023-02-15T01:50:54;2.20;99.90
34095;DHT22;20372;47.080;15.410;2023-02-15T01:53:41;2.20;99.90
34095;DHT22;20372;47.080;15.410;2023-02-15T01:58:33;2.20;99.90
34095;DHT22;20372;47.080;15.410;2023-02-15T02:00:59;2.30;99.90
34095;DHT22;20372;47.080;15.410;2023-02-15T02:03:30;2.30;99.90
34095;DHT22;20372;47.080;15.410;2023-02-15T02:05:57;2.30;99.90
34095;DHT22;20372;47.080;15.410;2023-02-15T02:08:23;2.30;99.90
34095;DHT22;20372;47.080;15.410;2023-02-15T02:10:49;2.30;99.90
34095;DHT22;20372;47.080;15.410;2023-02-15T02:13:14;2.40;99.90
34095;DHT22;20372;47.080;15.410;2023-02-15T02:15:47;2.30;99.90
34095;DHT22;20372;47.080;15.410;2023-02-15T02:18:18;2.40;99.90
34095;DHT22;20372;47.080;15.410;2023-02-15T02:23:20;2.50;99.90
34095;DHT22;20372;47.080;15.410;2023-02-15T02:28:40;2.30;99.90
34095;DHT22;20372;47.080;15.410;2023-02-15T02:41:32;2.40;99.90
34095;DHT22;20372;47.080;15.410;2023-02-15T02:46:32;2.40;99.90
34095;DHT22;20372;47.080;15.410;2023-02-15T02:49:00;2.30;99.90
34095;DHT22;20372;47.080;15.410;2023-02-15T02:51:26;2.50;99.90
34095;DHT22;20372;47.080;15.410;2023-02-15T02:53:53;2.60;99.90
34095;DHT22;20372;47.080;15.410;2023-02-15T02:56:22;2.70;99.90
34095;DHT22;20372;47.080;15.410;2023-02-15T02:59:12;2.60;99.90
34095;DHT22;20372;47.080;15.410;2023-02-15T03:01:37;2.60;99.90
34095;DHT22;20372;47.080;15.410;2023-02-15T03:04:05;2.70;99.90
34095;DHT22;20372;47.080;15.410;2023-02-15T03:09:00;2.70;99.90
34095;DHT22;20372;47.080;15.410;2023-02-15T03:11:26;2.60;99.90
34095;DHT22;20372;47.080;15.410;2023-02-15T03:13:52;2.60;99.90
34095;DHT22;20372;47.080;15.410;2023-02-15T03:16:18;2.70;99.90
34095;DHT22;20372;47.080;15.410;2023-02-15T03:18:53;2.70;99.90
34095;DHT22;20372;47.080;15.410;2023-02-15T03:24:03;2.70;99.90
34095;DHT22;20372;47.080;15.410;2023-02-15T03:26:29;2.70;99.90
34095;DHT22;20372;47.080;15.410;2023-02-15T03:28:55;2.60;99.90
34095;DHT22;20372;47.080;15.410;2023-02-15T03:31:23;2.60;99.90
34095;DHT22;20372;47.080;15.410;2023-02-15T03:33:58;2.50;99.90
34095;DHT22;20372;47.080;15.410;2023-02-15T03:41:26;2.50;99.90
34095;DHT22;20372;47.080;15.410;2023-02-15T03:43:56;2.50;99.90
34095;DHT22;20372;47.080;15.410;2023-02-15T03:46:28;2.50;99.90
34095;DHT22;20372;47.080;15.410;2023-02-15T03:48:57;2.50;99.90
34095;DHT22;20372;47.080;15.410;2023-02-15T03:51:26;2.50;99.90
34095;DHT22;20372;47.080;15.410;2023-02-15T03:53:59;2.50;99.90
34095;DHT22;20372;47.080;15.410;2023-02-15T03:56:26;2.50;99.90
34095;DHT22;20372;47.080;15.410;2023-02-15T03:58:51;2.50;99.90
34095;DHT22;20372;47.080;15.410;2023-02-15T04:04:35;2.60;99.90
34095;DHT22;20372;47.080;15.410;2023-02-15T04:07:02;2.60;99.90
34095;DHT22;20372;47.080;15.410;2023-02-15T04:09:28;2.60;99.90
34095;DHT22;20372;47.080;15.410;2023-02-15T04:12:12;2.60;99.90
34095;DHT22;20372;47.080;15.410;2023-02-15T04:14:38;2.50;99.90
34095;DHT22;20372;47.080;15.410;2023-02-15T04:17:22;2.50;99.90
34095;DHT22;20372;47.080;15.410;2023-02-15T04:19:48;2.50;99.90
34095;DHT22;20372;47.080;15.410;2023-02-15T04:22:32;2.40;99.90
34095;DHT22;20372;47.080;15.410;2023-02-15T04:25:16;2.30;99.90
34095;DHT22;20372;47.080;15.410;2023-02-15T04:27:43;2.40;99.90
34095;DHT22;20372;47.080;15.410;2023-02-15T04:30:09;2.30;99.90
34095;DHT22;20372;47.080;15.410;2023-02-15T04:32:35;2.30;99.90
34095;DHT22;20372;47.080;15.410;2023-02-15T04:35:00;2.30;99.90
34095;DHT22;20372;47.080;15.410;2023-02-15T04:37:26;2.30;99.90
34095;DHT22;20372;47.080;15.410;2023-02-15T04:39:52;2.30;99.90
34095;DHT22;20372;47.080;15.410;2023-02-15T04:42:17;2.40;99.90
34095;DHT22;20372;47.080;15.410;2023-02-15T04:44:43;2.30;99.90
34095;DHT22;20372;47.080;15.410;2023-02-15T04:47:08;2.40;99.90
34095;DHT22;20372;47.080;15.410;2023-02-15T04:49:34;2.40;99.90
34095;DHT22;20372;47.080;15.410;2023-02-15T04:51:59;2.30;99.90
34095;DHT22;20372;47.080;15.410;2023-02-15T04:54:25;2.30;99.90
34095;DHT22;20372;47.080;15.410;2023-02-15T04:56:51;2.30;99.90
34095;DHT22;20372;47.080;15.410;2023-02-15T04:59:16;2.30;99.90
34095;DHT22;20372;47.080;15.410;2023-02-15T05:01:42;2.30;99.90
34095;DHT22;20372;47.080;15.410;2023-02-15T05:04:07;2.30;99.90
34095;DHT22;20372;47.080;15.410;2023-02-15T05:06:33;2.30;99.90
34095;DHT22;20372;47.080;15.410;2023-02-15T05:08:58;2.20;99.90
34095;DHT22;20372;47.080;15.410;2023-02-15T05:11:24;2.20;99.90
34095;DHT22;20372;47.080;15.410;2023-02-15T05:13:50;2.10;99.90
34095;DHT22;20372;47.080;15.410;2023-02-15T05:16:16;2.10;99.90
34095;DHT22;20372;47.080;15.410;2023-02-15T05:18:42;2.10;99.90
34095;DHT22;20372;47.080;15.410;2023-02-15T05:21:07;2.10;99.90
34095;DHT22;20372;47.080;15.410;2023-02-15T05:23:33;2.10;99.90
34095;DHT22;20372;47.080;15.410;2023-02-15T05:25:58;2.10;99.90
34095;DHT22;20372;47.080;15.410;2023-02-15T05:28:42;2.10;99.90
34095;DHT22;20372;47.080;15.410;2023-02-15T05:31:12;2.00;99.90
34095;DHT22;20372;47.080;15.410;2023-02-15T05:33:38;1.90;99.90
34095;DHT22;20372;47.080;15.410;2023-02-15T05:36:04;1.90;99.90
34095;DHT22;20372;47.080;15.410;2023-02-15T05:38:30;1.90;99.90
34095;DHT22;20372;47.080;15.410;2023-02-15T05:40:56;1.90;99.90
34095;DHT22;20372;47.080;15.410;2023-02-15T05:43:22;1.90;99.90
34095;DHT22;20372;47.080;15.410;2023-02-15T05:45:48;1.90;99.90
34095;DHT22;20372;47.080;15.410;2023-02-15T05:48:14;1.90;99.90
34095;DHT22;20372;47.080;15.410;2023-02-15T05:50:39;1.90;99.90
34095;DHT22;20372;47.080;15.410;2023-02-15T05:53:05;1.60;99.90
34095;DHT22;20372;47.080;15.410;2023-02-15T05:55:31;1.80;99.90
34095;DHT22;20372;47.080;15.410;2023-02-15T05:57:56;1.80;99.90
34095;DHT22;20372;47.080;15.410;2023-02-15T06:00:22;1.80;99.90
34095;DHT22;20372;47.080;15.410;2023-02-15T06:02:47;1.80;99.90
34095;DHT22;20372;47.080;15.410;2023-02-15T06:05:13;1.90;99.90
34095;DHT22;20372;47.080;15.410;2023-02-15T06:07:39;1.90;99.90
34095;DHT22;20372;47.080;15.410;2023-02-15T06:10:04;1.80;99.90
34095;DHT22;20372;47.080;15.410;2023-02-15T06:12:30;1.90;99.90
34095;DHT22;20372;47.080;15.410;2023-02-15T06:14:56;1.90;99.90
34095;DHT22;20372;47.080;15.410;2023-02-15T06:17:21;2.00;99.90
34095;DHT22;20372;47.080;15.410;2023-02-15T06:19:47;2.00;99.90
34095;DHT22;20372;47.080;15.410;2023-02-15T06:22:13;1.90;99.90
34095;DHT22;20372;47.080;15.410;2023-02-15T06:24:41;1.90;99.90
34095;DHT22;20372;47.080;15.410;2023-02-15T06:27:08;1.90;99.90
34095;DHT22;20372;47.080;15.410;2023-02-15T06:29:34;1.90;99.90
34095;DHT22;20372;47.080;15.410;2023-02-15T06:32:00;1.90;99.90
34095;DHT22;20372;47.080;15.410;2023-02-15T06:34:25;1.90;99.90
34095;DHT22;20372;47.080;15.410;2023-02-15T06:36:51;1.90;99.90
34095;DHT22;20372;47.080;15.410;2023-02-15T06:39:16;2.00;99.90
34095;DHT22;20372;47.080;15.410;2023-02-15T06:41:42;1.90;99.90
34095;DHT22;20372;47.080;15.410;2023-02-15T06:44:08;2.00;99.90
34095;DHT22;20372;47.080;15.410;2023-02-15T06:46:33;2.00;99.90
34095;DHT22;20372;47.080;15.410;2023-02-15T06:48:59;2.00;99.90
34095;DHT22;20372;47.080;15.410;2023-02-15T06:51:24;2.00;99.90
34095;DHT22;20372;47.080;15.410;2023-02-15T06:53:50;2.00;99.90
34095;DHT22;20372;47.080;15.410;2023-02-15T06:56:15;2.00;99.90
34095;DHT22;20372;47.080;15.410;2023-02-15T06:58:41;2.10;99.90
34095;DHT22;20372;47.080;15.410;2023-02-15T07:01:07;2.00;99.90
34095;DHT22;20372;47.080;15.410;2023-02-15T07:03:33;2.00;99.90
34095;DHT22;20372;47.080;15.410;2023-02-15T07:06:00;2.00;99.90
34095;DHT22;20372;47.080;15.410;2023-02-15T07:08:26;2.10;99.90
34095;DHT22;20372;47.080;15.410;2023-02-15T07:10:52;2.20;99.90
34095;DHT22;20372;47.080;15.410;2023-02-15T07:13:18;2.20;99.90
34095;DHT22;20372;47.080;15.410;2023-02-15T07:15:44;2.30;99.90
34095;DHT22;20372;47.080;15.410;2023-02-15T07:18:10;2.40;99.90
34095;DHT22;20372;47.080;15.410;2023-02-15T07:20:36;2.50;99.90
34095;DHT22;20372;47.080;15.410;2023-02-15T07:23:03;2.30;99.90
34095;DHT22;20372;47.080;15.410;2023-02-15T07:25:28;2.20;99.90
34095;DHT22;20372;47.080;15.410;2023-02-15T07:28:01;2.20;99.90
34095;DHT22;20372;47.080;15.410;2023-02-15T07:30:27;2.30;99.90
34095;DHT22;20372;47.080;15.410;2023-02-15T07:32:56;2.40;99.90
34095;DHT22;20372;47.080;15.410;2023-02-15T07:35:47;2.50;99.90
34095;DHT22;20372;47.080;15.410;2023-02-15T07:38:14;2.60;99.90
34095;DHT22;20372;47.080;15.410;2023-02-15T07:40:39;2.60;99.90
34095;DHT22;20372;47.080;15.410;2023-02-15T07:43:05;2.70;99.90
34095;DHT22;20372;47.080;15.410;2023-02-15T07:45:30;2.80;99.90
34095;DHT22;20372;47.080;15.410;2023-02-15T07:47:56;2.80;99.90
34095;DHT22;20372;47.080;15.410;2023-02-15T07:50:22;2.80;99.90
34095;DHT22;20372;47.080;15.410;2023-02-15T07:52:47;2.90;99.90
34095;DHT22;20372;47.080;15.410;2023-02-15T07:55:13;3.00;99.90
34095;DHT22;20372;47.080;15.410;2023-02-15T07:57:45;2.90;99.90
34095;DHT22;20372;47.080;15.410;2023-02-15T08:00:12;2.70;99.90
34095;DHT22;20372;47.080;15.410;2023-02-15T08:02:38;2.80;99.90
34095;DHT22;20372;47.080;15.410;2023-02-15T08:05:04;2.80;99.90
34095;DHT22;20372;47.080;15.410;2023-02-15T08:07:30;2.90;99.90
34095;DHT22;20372;47.080;15.410;2023-02-15T08:09:55;2.90;99.90
34095;DHT22;20372;47.080;15.410;2023-02-15T08:12:21;3.00;99.90
34095;DHT22;20372;47.080;15.410;2023-02-15T08:14:47;3.10;99.90
34095;DHT22;20372;47.080;15.410;2023-02-15T08:17:12;3.20;99.90
34095;DHT22;20372;47.080;15.410;2023-02-15T08:19:38;3.30;99.90
34095;DHT22;20372;47.080;15.410;2023-02-15T08:22:05;3.40;99.90
34095;DHT22;20372;47.080;15.410;2023-02-15T08:24:34;3.20;99.90
34095;DHT22;20372;47.080;15.410;2023-02-15T08:26:59;3.40;99.90
34095;DHT22;20372;47.080;15.410;2023-02-15T08:29:28;3.30;99.90
34095;DHT22;20372;47.080;15.410;2023-02-15T08:31:54;3.20;99.90
34095;DHT22;20372;47.080;15.410;2023-02-15T08:34:24;4.00;99.90
34095;DHT22;20372;47.080;15.410;2023-02-15T08:36:49;5.00;99.90
34095;DHT22;20372;47.080;15.410;2023-02-15T08:39:16;5.60;99.90
34095;DHT22;20372;47.080;15.410;2023-02-15T08:41:46;7.10;99.90
34095;DHT22;20372;47.080;15.410;2023-02-15T08:44:12;7.60;99.90
34095;DHT22;20372;47.080;15.410;2023-02-15T08:46:40;7.60;99.90
34095;DHT22;20372;47.080;15.410;2023-02-15T08:49:07;7.50;99.90
34095;DHT22;20372;47.080;15.410;2023-02-15T08:51:33;7.80;99.90
34095;DHT22;20372;47.080;15.410;2023-02-15T08:54:00;9.10;99.00
34095;DHT22;20372;47.080;15.410;2023-02-15T08:56:27;9.30;97.30
34095;DHT22;20372;47.080;15.410;2023-02-15T08:58:53;8.80;97.60
34095;DHT22;20372;47.080;15.410;2023-02-15T09:01:22;8.00;98.70
34095;DHT22;20372;47.080;15.410;2023-02-15T09:03:49;7.90;98.20
34095;DHT22;20372;47.080;15.410;2023-02-15T09:06:18;7.50;98.70
34095;DHT22;20372;47.080;15.410;2023-02-15T09:08:44;7.40;98.70
34095;DHT22;20372;47.080;15.410;2023-02-15T09:11:11;7.90;98.40
34095;DHT22;20372;47.080;15.410;2023-02-15T09:13:37;8.60;97.20
34095;DHT22;20372;47.080;15.410;2023-02-15T09:16:05;8.60;96.20
34095;DHT22;20372;47.080;15.410;2023-02-15T09:18:31;7.10;98.10
34095;DHT22;20372;47.080;15.410;2023-02-15T09:21:05;5.60;99.90
34095;DHT22;20372;47.080;15.410;2023-02-15T09:23:31;5.20;99.90
34095;DHT22;20372;47.080;15.410;2023-02-15T09:25:56;5.40;99.90
34095;DHT22;20372;47.080;15.410;2023-02-15T09:28:22;6.50;99.90
34095;DHT22;20372;47.080;15.410;2023-02-15T09:30:48;7.10;99.90
34095;DHT22;20372;47.080;15.410;2023-02-15T09:33:13;7.30;99.90
34095;DHT22;20372;47.080;15.410;2023-02-15T09:35:39;6.90;99.90
34095;DHT22;20372;47.080;15.410;2023-02-15T09:38:04;7.10;99.90
34095;DHT22;20372;47.080;15.410;2023-02-15T09:40:31;6.70;99.90
34095;DHT22;20372;47.080;15.410;2023-02-15T09:43:04;6.70;99.90
34095;DHT22;20372;47.080;15.410;2023-02-15T09:45:37;5.90;99.90
34095;DHT22;20372;47.080;15.410;2023-02-15T09:56:06;5.30;99.90
34095;DHT22;20372;47.080;15.410;2023-02-15T10:19:20;6.40;99.90
34095;DHT22;20372;47.080;15.410;2023-02-15T10:22:10;6.30;99.90
34095;DHT22;20372;47.080;15.410;2023-02-15T10:27:22;6.40;99.90
34095;DHT22;20372;47.080;15.410;2023-02-15T10:37:32;7.30;99.90
34095;DHT22;20372;47.080;15.410;2023-02-15T10:45:34;7.00;99.90
34095;DHT22;20372;47.080;15.410;2023-02-15T10:53:07;6.20;99.90
34095;DHT22;20372;47.080;15.410;2023-02-15T10:55:42;6.10;99.90
34095;DHT22;20372;47.080;15.410;2023-02-15T11:03:24;6.30;99.90
34095;DHT22;20372;47.080;15.410;2023-02-15T11:06:09;6.50;99.90
34095;DHT22;20372;47.080;15.410;2023-02-15T11:08:47;7.10;99.90
34095;DHT22;20372;47.080;15.410;2023-02-15T11:11:21;6.90;99.90
34095;DHT22;20372;47.080;15.410;2023-02-15T11:13:48;7.20;99.90
34095;DHT22;20372;47.080;15.410;2023-02-15T11:16:17;7.20;99.90
34095;DHT22;20372;47.080;15.410;2023-02-15T11:18:48;6.40;99.90
34095;DHT22;20372;47.080;15.410;2023-02-15T11:23:50;7.20;99.90
34095;DHT22;20372;47.080;15.410;2023-02-15T11:26:19;7.20;99.90
34095;DHT22;20372;47.080;15.410;2023-02-15T11:31:22;6.80;99.90
34095;DHT22;20372;47.080;15.410;2023-02-15T11:33:52;5.80;99.90
34095;DHT22;20372;47.080;15.410;2023-02-15T11:36:25;6.30;99.90
34095;DHT22;20372;47.080;15.410;2023-02-15T11:39:01;6.60;99.90
34095;DHT22;20372;47.080;15.410;2023-02-15T11:41:29;6.40;99.90
34095;DHT22;20372;47.080;15.410;2023-02-15T11:46:31;6.40;99.90
34095;DHT22;20372;47.080;15.410;2023-02-15T11:48:57;6.60;99.90
34095;DHT22;20372;47.080;15.410;2023-02-15T11:51:23;6.90;99.90
34095;DHT22;20372;47.080;15.410;2023-02-15T11:53:49;6.20;99.90
34095;DHT22;20372;47.080;15.410;2023-02-15T12:06:16;7.20;99.90
34095;DHT22;20372;47.080;15.410;2023-02-15T12:08:46;7.20;99.90
34095;DHT22;20372;47.080;15.410;2023-02-15T12:11:35;7.30;99.90
34095;DHT22;20372;47.080;15.410;2023-02-15T12:14:04;7.10;99.90
34095;DHT22;20372;47.080;15.410;2023-02-15T12:16:32;7.50;99.90
34095;DHT22;20372;47.080;15.410;2023-02-15T12:18:59;6.40;99.90
34095;DHT22;20372;47.080;15.410;2023-02-15T12:21:27;6.80;99.90
34095;DHT22;20372;47.080;15.410;2023-02-15T12:23:57;7.00;99.90
34095;DHT22;20372;47.080;15.410;2023-02-15T12:26:30;7.40;99.90
34095;DHT22;20372;47.080;15.410;2023-02-15T12:28:58;7.30;99.90
34095;DHT22;20372;47.080;15.410;2023-02-15T12:31:33;7.30;99.90
34095;DHT22;20372;47.080;15.410;2023-02-15T12:34:02;7.40;99.90
34095;DHT22;20372;47.080;15.410;2023-02-15T12:36:29;7.60;99.90
34095;DHT22;20372;47.080;15.410;2023-02-15T12:39:15;7.50;99.90
34095;DHT22;20372;47.080;15.410;2023-02-15T12:41:45;7.10;99.90
34095;DHT22;20372;47.080;15.410;2023-02-15T12:46:40;7.50;99.90
34095;DHT22;20372;47.080;15.410;2023-02-15T12:51:44;7.50;99.90
34095;DHT22;20372;47.080;15.410;2023-02-15T12:54:32;7.00;99.90
34095;DHT22;20372;47.080;15.410;2023-02-15T12:57:02;7.00;99.90
34095;DHT22;20372;47.080;15.410;2023-02-15T12:59:42;6.90;99.90
34095;DHT22;20372;47.080;15.410;2023-02-15T13:02:16;7.00;99.90
34095;DHT22;20372;47.080;15.410;2023-02-15T13:04:47;6.50;99.90
34095;DHT22;20372;47.080;15.410;2023-02-15T13:07:13;6.40;99.90
34095;DHT22;20372;47.080;15.410;2023-02-15T13:09:40;6.20;99.90
34095;DHT22;20372;47.080;15.410;2023-02-15T13:12:25;6.60;99.90
34095;DHT22;20372;47.080;15.410;2023-02-15T13:14:56;6.80;99.90
34095;DHT22;20372;47.080;15.410;2023-02-15T13:17:26;6.60;99.90
34095;DHT22;20372;47.080;15.410;2023-02-15T13:19:54;6.90;99.90
34095;DHT22;20372;47.080;15.410;2023-02-15T13:22:28;6.70;99.90
34095;DHT22;20372;47.080;15.410;2023-02-15T13:24:58;6.60;99.90
34095;DHT22;20372;47.080;15.410;2023-02-15T13:27:26;6.50;99.90
34095;DHT22;20372;47.080;15.410;2023-02-15T13:29:56;6.40;99.90
34095;DHT22;20372;47.080;15.410;2023-02-15T13:32:30;6.80;99.90
34095;DHT22;20372;47.080;15.410;2023-02-15T13:34:57;6.90;99.90
34095;DHT22;20372;47.080;15.410;2023-02-15T13:50:29;7.30;99.90
34095;DHT22;20372;47.080;15.410;2023-02-15T13:53:02;7.10;99.90
34095;DHT22;20372;47.080;15.410;2023-02-15T13:55:43;7.00;99.90
34095;DHT22;20372;47.080;15.410;2023-02-15T14:11:42;7.00;99.90
34095;DHT22;20372;47.080;15.410;2023-02-15T14:14:43;7.00;99.90
34095;DHT22;20372;47.080;15.410;2023-02-15T14:29:58;6.90;99.90
34095;DHT22;20372;47.080;15.410;2023-02-15T14:32:32;6.90;99.90
34095;DHT22;20372;47.080;15.410;2023-02-15T14:34:59;6.70;99.90
34095;DHT22;20372;47.080;15.410;2023-02-15T14:40:24;6.60;99.90
34095;DHT22;20372;47.080;15.410;2023-02-15T14:43:24;6.10;99.90
34095;DHT22;20372;47.080;15.410;2023-02-15T14:45:54;6.00;99.90
34095;DHT22;20372;47.080;15.410;2023-02-15T14:50:48;7.40;99.90
34095;DHT22;20372;47.080;15.410;2023-02-15T14:53:15;5.90;99.90
34095;DHT22;20372;47.080;15.410;2023-02-15T14:55:40;5.90;99.90
34095;DHT22;20372;47.080;15.410;2023-02-15T14:58:12;5.60;99.90
34095;DHT22;20372;47.080;15.410;2023-02-15T15:00:41;5.80;99.90
34095;DHT22;20372;47.080;15.410;2023-02-15T15:03:11;5.90;99.90
34095;DHT22;20372;47.080;15.410;2023-02-15T15:05:45;5.80;99.90
34095;DHT22;20372;47.080;15.410;2023-02-15T15:10:56;5.80;99.90
34095;DHT22;20372;47.080;15.410;2023-02-15T15:13:53;5.80;99.90
34095;DHT22;20372;47.080;15.410;2023-02-15T15:19:00;5.70;99.90
34095;DHT22;20372;47.080;15.410;2023-02-15T15:24:10;5.70;99.90
34095;DHT22;20372;47.080;15.410;2023-02-15T15:29:40;5.60;99.90
34095;DHT22;20372;47.080;15.410;2023-02-15T15:32:06;5.60;99.90
34095;DHT22;20372;47.080;15.410;2023-02-15T15:42:57;5.30;99.90
34095;DHT22;20372;47.080;15.410;2023-02-15T15:50:43;5.00;99.90
34095;DHT22;20372;47.080;15.410;2023-02-15T15:53:18;4.80;99.90
34095;DHT22;20372;47.080;15.410;2023-02-15T15:55:46;4.60;99.90
34095;DHT22;20372;47.080;15.410;2023-02-15T15:58:12;4.50;99.90
34095;DHT22;20372;47.080;15.410;2023-02-15T16:00:42;4.40;99.90
34095;DHT22;20372;47.080;15.410;2023-02-15T16:03:15;4.30;99.90
34095;DHT22;20372;47.080;15.410;2023-02-15T16:05:41;4.30;99.90
34095;DHT22;20372;47.080;15.410;2023-02-15T16:08:06;4.20;99.90
34095;DHT22;20372;47.080;15.410;2023-02-15T16:10:32;4.10;99.90
34095;DHT22;20372;47.080;15.410;2023-02-15T16:12:59;4.00;99.90
34095;DHT22;20372;47.080;15.410;2023-02-15T16:15:35;3.90;99.90
34095;DHT22;20372;47.080;15.410;2023-02-15T16:18:01;3.80;99.90
34095;DHT22;20372;47.080;15.410;2023-02-15T16:20:31;3.70;99.90
34095;DHT22;20372;47.080;15.410;2023-02-15T16:23:05;3.70;99.90
34095;DHT22;20372;47.080;15.410;2023-02-15T16:26:19;3.60;99.90
34095;DHT22;20372;47.080;15.410;2023-02-15T16:28:19;3.50;99.90
34095;DHT22;20372;47.080;15.410;2023-02-15T16:30:45;3.50;99.90
34095;DHT22;20372;47.080;15.410;2023-02-15T16:35:38;3.30;99.90
34095;DHT22;20372;47.080;15.410;2023-02-15T16:38:04;3.30;99.90
34095;DHT22;20372;47.080;15.410;2023-02-15T16:40:46;3.10;99.90
34095;DHT22;20372;47.080;15.410;2023-02-15T16:43:15;3.10;99.90
34095;DHT22;20372;47.080;15.410;2023-02-15T16:45:41;3.00;99.90
34095;DHT22;20372;47.080;15.410;2023-02-15T16:48:08;2.90;99.90
34095;DHT22;20372;47.080;15.410;2023-02-15T16:50:37;2.90;99.90
34095;DHT22;20372;47.080;15.410;2023-02-15T16:53:03;2.80;99.90
34095;DHT22;20372;47.080;15.410;2023-02-15T16:55:34;2.80;99.90
34095;DHT22;20372;47.080;15.410;2023-02-15T16:58:01;2.90;99.90
34095;DHT22;20372;47.080;15.410;2023-02-15T17:00:34;2.90;99.90
34095;DHT22;20372;47.080;15.410;2023-02-15T17:05:30;2.90;99.90
34095;DHT22;20372;47.080;15.410;2023-02-15T17:13:00;2.50;99.90
34095;DHT22;20372;47.080;15.410;2023-02-15T17:15:35;2.20;99.90
34095;DHT22;20372;47.080;15.410;2023-02-15T17:20:39;2.50;99.90
34095;DHT22;20372;47.080;15.410;2023-02-15T17:23:07;2.40;99.90
34095;DHT22;20372;47.080;15.410;2023-02-15T17:25:43;2.30;99.90
34095;DHT22;20372;47.080;15.410;2023-02-15T17:28:15;2.30;99.90
34095;DHT22;20372;47.080;15.410;2023-02-15T17:30:42;2.40;99.90
34095;DHT22;20372;47.080;15.410;2023-02-15T17:36:05;2.40;99.90
34095;DHT22;20372;47.080;15.410;2023-02-15T17:38:31;2.30;99.90
34095;DHT22;20372;47.080;15.410;2023-02-15T17:40:57;2.30;99.90
34095;DHT22;20372;47.080;15.410;2023-02-15T17:43:24;2.30;99.90
34095;DHT22;20372;47.080;15.410;2023-02-15T17:45:49;2.20;99.90
34095;DHT22;20372;47.080;15.410;2023-02-15T17:48:32;2.20;99.90
34095;DHT22;20372;47.080;15.410;2023-02-15T17:51:02;2.20;99.90
34095;DHT22;20372;47.080;15.410;2023-02-15T17:53:28;2.20;99.90
34095;DHT22;20372;47.080;15.410;2023-02-15T17:55:54;2.20;99.90
34095;DHT22;20372;47.080;15.410;2023-02-15T17:58:19;2.20;99.90
34095;DHT22;20372;47.080;15.410;2023-02-15T18:03:51;2.10;99.90
34095;DHT22;20372;47.080;15.410;2023-02-15T18:06:36;2.10;99.90
34095;DHT22;20372;47.080;15.410;2023-02-15T18:09:21;2.00;99.90
34095;DHT22;20372;47.080;15.410;2023-02-15T18:12:14;2.00;99.90
34095;DHT22;20372;47.080;15.410;2023-02-15T18:14:42;2.00;99.90
34095;DHT22;20372;47.080;15.410;2023-02-15T18:17:09;2.00;99.90
34095;DHT22;20372;47.080;15.410;2023-02-15T18:19:35;2.00;99.90
34095;DHT22;20372;47.080;15.410;2023-02-15T18:22:01;2.00;99.90
34095;DHT22;20372;47.080;15.410;2023-02-15T18:24:27;1.90;99.90
34095;DHT22;20372;47.080;15.410;2023-02-15T18:26:53;1.80;99.90
34095;DHT22;20372;47.080;15.410;2023-02-15T18:29:19;1.80;99.90
34095;DHT22;20372;47.080;15.410;2023-02-15T18:31:46;1.80;99.90
34095;DHT22;20372;47.080;15.410;2023-02-15T18:34:18;1.80;99.90
34095;DHT22;20372;47.080;15.410;2023-02-15T18:36:45;1.70;99.90
34095;DHT22;20372;47.080;15.410;2023-02-15T18:39:26;1.70;99.90
34095;DHT22;20372;47.080;15.410;2023-02-15T18:41:53;1.70;99.90
34095;DHT22;20372;47.080;15.410;2023-02-15T18:44:18;1.60;99.90
34095;DHT22;20372;47.080;15.410;2023-02-15T18:46:44;1.50;99.90
34095;DHT22;20372;47.080;15.410;2023-02-15T18:49:09;1.50;99.90
34095;DHT22;20372;47.080;15.410;2023-02-15T18:51:35;1.40;99.90
34095;DHT22;20372;47.080;15.410;2023-02-15T18:54:04;1.40;99.90
34095;DHT22;20372;47.080;15.410;2023-02-15T18:56:30;1.40;99.90
34095;DHT22;20372;47.080;15.410;2023-02-15T18:58:57;1.40;99.90